XNO32J EYVI-EKCH
Flight info
| Callsign | XNO32J |
|---|---|
| Flight time | 1h 14m |
| Altitude | 36000 |
| Route | ELEKA DCT IRZUK DCT ADAXA DCT NINTA DCT KOLJA DCT ELVIX L975 TIDVU |
| Aircraft | A320/M-SDE3FGHIRWY/LB1 |
Departure
| Time | 2026-04-21 19:05 |
|---|---|
| Airport | Vilnius International Airport (EYVI) |
Arrival
| Time | 2026-04-21 20:20 |
|---|---|
| Airport | Copenhagen Kastrup Airport (EKCH) |
| Time | Latitude | Longitude | Altitude | Speed | Heading |
|---|---|---|---|---|---|
| 2026-04-21 17:43 | 54.63909 | 25.28325 | 634 ft | 0 kts | 72° |
| 2026-04-21 18:55 | 54.63906 | 25.28314 | 632 ft | 2 kts | 78° |
| 2026-04-21 18:56 | 54.63903 | 25.28276 | 632 ft | 4 kts | 91° |
| 2026-04-21 18:56 | 54.63905 | 25.28233 | 634 ft | 2 kts | 98° |
| 2026-04-21 18:56 | 54.63905 | 25.28231 | 632 ft | 0 kts | 98° |
| 2026-04-21 18:58 | 54.63905 | 25.28233 | 632 ft | 2 kts | 100° |
| 2026-04-21 18:58 | 54.63900 | 25.28240 | 632 ft | 0 kts | 150° |
| 2026-04-21 18:59 | 54.63899 | 25.28240 | 636 ft | 1 kts | 151° |
| 2026-04-21 18:59 | 54.63839 | 25.28273 | 631 ft | 12 kts | 169° |
| 2026-04-21 18:59 | 54.63756 | 25.28299 | 636 ft | 12 kts | 169° |
| 2026-04-21 19:00 | 54.63676 | 25.28330 | 635 ft | 12 kts | 166° |
| 2026-04-21 19:00 | 54.63598 | 25.28355 | 631 ft | 11 kts | 177° |
| 2026-04-21 19:00 | 54.63523 | 25.28336 | 632 ft | 11 kts | 199° |
| 2026-04-21 19:00 | 54.63454 | 25.28287 | 628 ft | 11 kts | 201° |
| 2026-04-21 19:01 | 54.63386 | 25.28240 | 628 ft | 10 kts | 201° |
| 2026-04-21 19:01 | 54.63323 | 25.28198 | 618 ft | 8 kts | 201° |
| 2026-04-21 19:01 | 54.63271 | 25.28162 | 626 ft | 7 kts | 202° |
| 2026-04-21 19:01 | 54.63221 | 25.28129 | 616 ft | 8 kts | 201° |
| 2026-04-21 19:02 | 54.63131 | 25.28067 | 623 ft | 22 kts | 203° |
| 2026-04-21 19:02 | 54.62991 | 25.27969 | 616 ft | 22 kts | 202° |
| 2026-04-21 19:02 | 54.62856 | 25.27874 | 606 ft | 22 kts | 202° |
| 2026-04-21 19:02 | 54.62714 | 25.27777 | 603 ft | 22 kts | 201° |
| 2026-04-21 19:03 | 54.62592 | 25.27693 | 599 ft | 18 kts | 201° |
| 2026-04-21 19:03 | 54.62487 | 25.27696 | 597 ft | 15 kts | 148° |
| 2026-04-21 19:03 | 54.62422 | 25.27832 | 593 ft | 14 kts | 94° |
| 2026-04-21 19:03 | 54.62463 | 25.27914 | 594 ft | 2 kts | 22° |
| 2026-04-21 19:04 | 54.62465 | 25.27915 | 594 ft | 0 kts | 23° |
| 2026-04-21 19:05 | 54.62491 | 25.27934 | 595 ft | 24 kts | 22° |
| 2026-04-21 19:05 | 54.62893 | 25.28213 | 609 ft | 97 kts | 22° |
| 2026-04-21 19:05 | 54.63696 | 25.28765 | 649 ft | 148 kts | 21° |
| 2026-04-21 19:05 | 54.64637 | 25.29401 | 1307 ft | 144 kts | 21° |
| 2026-04-21 19:06 | 54.65596 | 25.30033 | 1817 ft | 156 kts | 20° |
| 2026-04-21 19:06 | 54.66699 | 25.30760 | 2057 ft | 183 kts | 21° |
| 2026-04-21 19:06 | 54.67952 | 25.31633 | 2433 ft | 203 kts | 22° |
| 2026-04-21 19:06 | 54.69332 | 25.32605 | 2868 ft | 223 kts | 22° |
| 2026-04-21 19:07 | 54.70784 | 25.33639 | 3662 ft | 227 kts | 22° |
| 2026-04-21 19:07 | 54.72251 | 25.34682 | 4521 ft | 229 kts | 22° |
| 2026-04-21 19:07 | 54.73731 | 25.35726 | 5358 ft | 231 kts | 22° |
| 2026-04-21 19:07 | 54.75229 | 25.36777 | 6198 ft | 233 kts | 21° |
| 2026-04-21 19:08 | 54.76742 | 25.37829 | 7032 ft | 235 kts | 21° |
| 2026-04-21 19:08 | 54.78289 | 25.38788 | 7830 ft | 238 kts | 10° |
| 2026-04-21 19:08 | 54.79940 | 25.38559 | 8589 ft | 245 kts | 340° |
| 2026-04-21 19:08 | 54.81342 | 25.36806 | 9055 ft | 268 kts | 309° |
| 2026-04-21 19:09 | 54.82197 | 25.33828 | 9638 ft | 282 kts | 296° |
| 2026-04-21 19:09 | 54.82933 | 25.30644 | 10359 ft | 288 kts | 295° |
| 2026-04-21 19:09 | 54.83512 | 25.27178 | 10629 ft | 315 kts | 277° |
| 2026-04-21 19:09 | 54.83162 | 25.23276 | 10828 ft | 345 kts | 249° |
| 2026-04-21 19:10 | 54.81716 | 25.19795 | 10985 ft | 371 kts | 221° |
| 2026-04-21 19:10 | 54.79491 | 25.17359 | 11333 ft | 385 kts | 206° |
| 2026-04-21 19:10 | 54.77110 | 25.15178 | 11937 ft | 390 kts | 211° |
| 2026-04-21 19:10 | 54.74999 | 25.12218 | 12538 ft | 394 kts | 230° |
| 2026-04-21 19:11 | 54.73609 | 25.08150 | 13114 ft | 394 kts | 253° |
| 2026-04-21 19:11 | 54.73191 | 25.03507 | 13685 ft | 391 kts | 275° |
| 2026-04-21 19:11 | 54.73652 | 24.98901 | 14271 ft | 388 kts | 292° |
| 2026-04-21 19:11 | 54.74608 | 24.94527 | 14823 ft | 390 kts | 295° |
| 2026-04-21 19:12 | 54.75260 | 24.91550 | 15211 ft | 393 kts | 295° |
| 2026-04-21 19:12 | 54.76524 | 24.85650 | 15938 ft | 397 kts | 294° |
| 2026-04-21 19:12 | 54.77475 | 24.81145 | 16463 ft | 400 kts | 294° |
| 2026-04-21 19:12 | 54.78432 | 24.76595 | 16956 ft | 404 kts | 294° |
| 2026-04-21 19:13 | 54.79397 | 24.72005 | 17460 ft | 407 kts | 294° |
| 2026-04-21 19:13 | 54.80442 | 24.67426 | 17946 ft | 408 kts | 300° |
| 2026-04-21 19:13 | 54.81646 | 24.62975 | 18417 ft | 411 kts | 300° |
| 2026-04-21 19:13 | 54.82866 | 24.58471 | 18897 ft | 413 kts | 300° |
| 2026-04-21 19:14 | 54.84093 | 24.53941 | 19359 ft | 416 kts | 300° |
| 2026-04-21 19:14 | 54.85325 | 24.49384 | 19803 ft | 419 kts | 300° |
| 2026-04-21 19:14 | 54.86562 | 24.44788 | 20255 ft | 422 kts | 300° |
| 2026-04-21 19:14 | 54.87805 | 24.40161 | 20682 ft | 424 kts | 300° |
| 2026-04-21 19:15 | 54.89054 | 24.35490 | 21103 ft | 427 kts | 300° |
| 2026-04-21 19:15 | 54.90308 | 24.30803 | 21499 ft | 430 kts | 300° |
| 2026-04-21 19:15 | 54.91572 | 24.26083 | 21884 ft | 432 kts | 300° |
| 2026-04-21 19:15 | 54.92838 | 24.21347 | 22255 ft | 435 kts | 300° |
| 2026-04-21 19:16 | 54.94114 | 24.16552 | 22624 ft | 437 kts | 300° |
| 2026-04-21 19:16 | 54.95392 | 24.11730 | 22985 ft | 439 kts | 299° |
| 2026-04-21 19:16 | 54.96674 | 24.06880 | 23336 ft | 442 kts | 299° |
| 2026-04-21 19:16 | 54.97961 | 24.01996 | 23675 ft | 445 kts | 299° |
| 2026-04-21 19:17 | 55.00548 | 23.92164 | 24355 ft | 449 kts | 299° |
| 2026-04-21 19:17 | 55.01849 | 23.87200 | 24691 ft | 451 kts | 299° |
| 2026-04-21 19:17 | 55.03139 | 23.82269 | 25013 ft | 453 kts | 300° |
| 2026-04-21 19:18 | 55.04444 | 23.77267 | 25332 ft | 455 kts | 299° |
| 2026-04-21 19:18 | 55.05755 | 23.72225 | 25630 ft | 457 kts | 299° |
| 2026-04-21 19:18 | 55.07068 | 23.67171 | 25931 ft | 459 kts | 299° |
| 2026-04-21 19:18 | 55.08385 | 23.62083 | 26215 ft | 461 kts | 299° |
| 2026-04-21 19:19 | 55.09705 | 23.56974 | 26500 ft | 462 kts | 299° |
| 2026-04-21 19:19 | 55.11024 | 23.51859 | 26775 ft | 464 kts | 299° |
| 2026-04-21 19:19 | 55.12353 | 23.46704 | 27042 ft | 465 kts | 299° |
| 2026-04-21 19:19 | 55.13679 | 23.41548 | 27297 ft | 467 kts | 299° |
| 2026-04-21 19:20 | 55.15012 | 23.36363 | 27588 ft | 468 kts | 299° |
| 2026-04-21 19:20 | 55.16340 | 23.31184 | 27957 ft | 466 kts | 300° |
| 2026-04-21 19:20 | 55.17236 | 23.27681 | 28209 ft | 465 kts | 299° |
| 2026-04-21 19:20 | 55.18531 | 23.22587 | 28568 ft | 464 kts | 299° |
| 2026-04-21 19:21 | 55.19855 | 23.17365 | 28923 ft | 463 kts | 299° |
| 2026-04-21 19:21 | 55.21142 | 23.12277 | 29269 ft | 462 kts | 299° |
| 2026-04-21 19:21 | 55.22439 | 23.07136 | 29619 ft | 461 kts | 299° |
| 2026-04-21 19:21 | 55.23737 | 23.02006 | 29954 ft | 460 kts | 300° |
| 2026-04-21 19:22 | 55.25088 | 22.96942 | 30284 ft | 458 kts | 301° |
| 2026-04-21 19:22 | 55.26495 | 22.91936 | 30590 ft | 457 kts | 302° |
| 2026-04-21 19:22 | 55.27929 | 22.86959 | 30902 ft | 457 kts | 302° |
| 2026-04-21 19:22 | 55.29364 | 22.81982 | 31191 ft | 457 kts | 302° |
| 2026-04-21 19:23 | 55.30789 | 22.76997 | 31470 ft | 458 kts | 302° |
| 2026-04-21 19:23 | 55.32200 | 22.71985 | 31748 ft | 458 kts | 302° |
| 2026-04-21 19:23 | 55.33596 | 22.66963 | 32029 ft | 458 kts | 301° |
| 2026-04-21 19:23 | 55.34986 | 22.61922 | 32308 ft | 458 kts | 301° |
| 2026-04-21 19:24 | 55.36373 | 22.56869 | 32581 ft | 459 kts | 301° |
| 2026-04-21 19:24 | 55.37757 | 22.51817 | 32848 ft | 459 kts | 301° |
| 2026-04-21 19:24 | 55.39144 | 22.46754 | 33107 ft | 459 kts | 301° |
| 2026-04-21 19:24 | 55.40531 | 22.41685 | 33373 ft | 459 kts | 301° |
| 2026-04-21 19:25 | 55.41918 | 22.36621 | 33635 ft | 459 kts | 301° |
| 2026-04-21 19:25 | 55.43308 | 22.31558 | 33895 ft | 460 kts | 301° |
| 2026-04-21 19:25 | 55.44695 | 22.26491 | 34137 ft | 460 kts | 301° |
| 2026-04-21 19:25 | 55.46081 | 22.21398 | 34397 ft | 460 kts | 301° |
| 2026-04-21 19:26 | 55.47448 | 22.16369 | 34655 ft | 460 kts | 301° |
| 2026-04-21 19:26 | 55.48826 | 22.11276 | 34913 ft | 460 kts | 300° |
| 2026-04-21 19:26 | 55.50199 | 22.06181 | 35149 ft | 460 kts | 300° |
| 2026-04-21 19:26 | 55.51573 | 22.01073 | 35381 ft | 460 kts | 300° |
| 2026-04-21 19:27 | 55.52946 | 21.95967 | 35613 ft | 461 kts | 300° |
| 2026-04-21 19:27 | 55.54316 | 21.90860 | 35835 ft | 460 kts | 300° |
| 2026-04-21 19:27 | 55.55684 | 21.85749 | 36057 ft | 460 kts | 300° |
| 2026-04-21 19:27 | 55.57054 | 21.80621 | 36178 ft | 462 kts | 300° |
| 2026-04-21 19:28 | 55.59810 | 21.70300 | 36201 ft | 466 kts | 300° |
| 2026-04-21 19:28 | 55.62562 | 21.59920 | 36212 ft | 466 kts | 299° |
| 2026-04-21 19:29 | 55.65300 | 21.49525 | 36213 ft | 466 kts | 299° |
| 2026-04-21 19:29 | 55.68027 | 21.39123 | 36221 ft | 466 kts | 299° |
| 2026-04-21 19:30 | 55.70755 | 21.28694 | 36219 ft | 466 kts | 299° |
| 2026-04-21 19:30 | 55.73468 | 21.18251 | 36216 ft | 466 kts | 299° |
| 2026-04-21 19:31 | 55.76182 | 21.07793 | 36215 ft | 466 kts | 299° |
| 2026-04-21 19:31 | 55.78879 | 20.97326 | 36214 ft | 466 kts | 299° |
| 2026-04-21 19:32 | 55.81560 | 20.86837 | 36218 ft | 466 kts | 298° |
| 2026-04-21 19:32 | 55.84241 | 20.76332 | 36220 ft | 466 kts | 298° |
| 2026-04-21 19:33 | 55.86894 | 20.65901 | 36221 ft | 466 kts | 298° |
| 2026-04-21 19:33 | 55.89556 | 20.55381 | 36222 ft | 466 kts | 298° |
| 2026-04-21 19:34 | 55.92209 | 20.44834 | 36223 ft | 466 kts | 298° |
| 2026-04-21 19:34 | 55.94854 | 20.34276 | 36224 ft | 466 kts | 298° |
| 2026-04-21 19:35 | 55.98804 | 20.18408 | 36231 ft | 466 kts | 298° |
| 2026-04-21 19:36 | 56.01425 | 20.07821 | 36235 ft | 466 kts | 298° |
| 2026-04-21 19:36 | 56.04036 | 19.97218 | 36237 ft | 466 kts | 298° |
| 2026-04-21 19:37 | 56.06640 | 19.86595 | 36235 ft | 466 kts | 298° |
| 2026-04-21 19:37 | 56.09233 | 19.75980 | 36233 ft | 465 kts | 298° |
| 2026-04-21 19:38 | 56.11818 | 19.65357 | 36230 ft | 465 kts | 298° |
| 2026-04-21 19:38 | 56.14382 | 19.54721 | 36226 ft | 465 kts | 298° |
| 2026-04-21 19:39 | 56.16941 | 19.44053 | 36228 ft | 465 kts | 297° |
| 2026-04-21 19:39 | 56.19494 | 19.33366 | 36230 ft | 466 kts | 297° |
| 2026-04-21 19:40 | 56.22026 | 19.22751 | 36241 ft | 465 kts | 297° |
| 2026-04-21 19:40 | 56.24567 | 19.12058 | 36245 ft | 465 kts | 297° |
| 2026-04-21 19:41 | 56.27088 | 19.01339 | 36251 ft | 465 kts | 297° |
| 2026-04-21 19:41 | 56.28844 | 18.90099 | 36251 ft | 474 kts | 279° |
| 2026-04-21 19:42 | 56.28490 | 18.78204 | 36244 ft | 481 kts | 262° |
| 2026-04-21 19:42 | 56.27178 | 18.66391 | 36236 ft | 481 kts | 261° |
| 2026-04-21 19:43 | 56.25853 | 18.54591 | 36236 ft | 481 kts | 261° |
| 2026-04-21 19:43 | 56.24521 | 18.42782 | 36235 ft | 482 kts | 261° |
| 2026-04-21 19:44 | 56.23170 | 18.30975 | 36240 ft | 482 kts | 261° |
| 2026-04-21 19:44 | 56.21640 | 18.19214 | 36250 ft | 484 kts | 258° |
| 2026-04-21 19:45 | 56.19832 | 18.07556 | 36261 ft | 485 kts | 256° |
| 2026-04-21 19:45 | 56.17976 | 17.95917 | 36269 ft | 485 kts | 257° |
| 2026-04-21 19:46 | 56.16172 | 17.84264 | 36277 ft | 485 kts | 257° |
| 2026-04-21 19:46 | 56.14401 | 17.72592 | 36282 ft | 485 kts | 257° |
| 2026-04-21 19:47 | 56.12623 | 17.60932 | 36286 ft | 485 kts | 257° |
| 2026-04-21 19:47 | 56.10814 | 17.49290 | 36291 ft | 484 kts | 257° |
| 2026-04-21 19:48 | 56.08998 | 17.37759 | 36293 ft | 484 kts | 257° |
| 2026-04-21 19:48 | 56.07160 | 17.26144 | 36296 ft | 484 kts | 257° |
| 2026-04-21 19:49 | 56.05317 | 17.14552 | 36297 ft | 484 kts | 257° |
| 2026-04-21 19:49 | 56.03469 | 17.02977 | 36309 ft | 484 kts | 257° |
| 2026-04-21 19:50 | 56.01907 | 16.93277 | 36315 ft | 485 kts | 257° |
| 2026-04-21 19:50 | 55.99710 | 16.79855 | 36300 ft | 485 kts | 255° |
| 2026-04-21 19:51 | 55.97516 | 16.68426 | 36295 ft | 487 kts | 252° |
| 2026-04-21 19:51 | 55.95109 | 16.57109 | 36293 ft | 488 kts | 251° |
| 2026-04-21 19:52 | 55.92703 | 16.45789 | 36297 ft | 488 kts | 252° |
| 2026-04-21 19:52 | 55.90350 | 16.34421 | 36308 ft | 488 kts | 252° |
| 2026-04-21 19:53 | 55.88020 | 16.23048 | 36312 ft | 489 kts | 252° |
| 2026-04-21 19:53 | 55.85666 | 16.11701 | 36323 ft | 489 kts | 252° |
| 2026-04-21 19:54 | 55.83285 | 16.00355 | 36314 ft | 490 kts | 252° |
| 2026-04-21 19:54 | 55.80903 | 15.89095 | 36325 ft | 489 kts | 252° |
| 2026-04-21 19:55 | 55.78501 | 15.77771 | 36313 ft | 490 kts | 252° |
| 2026-04-21 19:55 | 55.76086 | 15.66462 | 36317 ft | 490 kts | 251° |
| 2026-04-21 19:56 | 55.73666 | 15.55160 | 36243 ft | 490 kts | 251° |
| 2026-04-21 19:56 | 55.72452 | 15.49515 | 36000 ft | 489 kts | 251° |
| 2026-04-21 19:56 | 55.71235 | 15.43896 | 35745 ft | 489 kts | 251° |
| 2026-04-21 19:56 | 55.70011 | 15.38263 | 35496 ft | 489 kts | 251° |
| 2026-04-21 19:57 | 55.68786 | 15.32641 | 35248 ft | 489 kts | 251° |
| 2026-04-21 19:57 | 55.67559 | 15.26996 | 35007 ft | 490 kts | 251° |
| 2026-04-21 19:57 | 55.66333 | 15.21368 | 34504 ft | 491 kts | 251° |
| 2026-04-21 19:57 | 55.65095 | 15.15696 | 33361 ft | 494 kts | 251° |
| 2026-04-21 19:58 | 55.63860 | 15.10066 | 32381 ft | 488 kts | 251° |
| 2026-04-21 19:58 | 55.62629 | 15.04483 | 31291 ft | 484 kts | 251° |
| 2026-04-21 19:58 | 55.61412 | 14.98974 | 30287 ft | 478 kts | 251° |
| 2026-04-21 19:58 | 55.60201 | 14.93502 | 29124 ft | 476 kts | 251° |
| 2026-04-21 19:59 | 55.58995 | 14.88067 | 27974 ft | 475 kts | 251° |
| 2026-04-21 19:59 | 55.57788 | 14.82634 | 26779 ft | 475 kts | 250° |
| 2026-04-21 19:59 | 55.56560 | 14.77125 | 25503 ft | 487 kts | 250° |
| 2026-04-21 19:59 | 55.55324 | 14.71584 | 24214 ft | 496 kts | 250° |
| 2026-04-21 20:00 | 55.54034 | 14.65810 | 23111 ft | 499 kts | 250° |
| 2026-04-21 20:00 | 55.52771 | 14.60200 | 22192 ft | 498 kts | 250° |
| 2026-04-21 20:00 | 55.51502 | 14.54586 | 21278 ft | 484 kts | 250° |
| 2026-04-21 20:00 | 55.50274 | 14.49175 | 20411 ft | 467 kts | 249° |
| 2026-04-21 20:01 | 55.49084 | 14.43947 | 19575 ft | 452 kts | 249° |
| 2026-04-21 20:01 | 55.47931 | 14.38878 | 18788 ft | 442 kts | 250° |
| 2026-04-21 20:01 | 55.46792 | 14.33860 | 18009 ft | 438 kts | 250° |
| 2026-04-21 20:01 | 55.45666 | 14.28909 | 17266 ft | 435 kts | 249° |
| 2026-04-21 20:02 | 55.44917 | 14.25631 | 16770 ft | 435 kts | 249° |
| 2026-04-21 20:02 | 55.43399 | 14.19023 | 15800 ft | 434 kts | 249° |
| 2026-04-21 20:02 | 55.42280 | 14.14091 | 15095 ft | 432 kts | 251° |
| 2026-04-21 20:02 | 55.41498 | 14.09019 | 14431 ft | 427 kts | 262° |
| 2026-04-21 20:03 | 55.41196 | 14.03862 | 13801 ft | 421 kts | 271° |
| 2026-04-21 20:03 | 55.41203 | 13.98758 | 13210 ft | 415 kts | 272° |
| 2026-04-21 20:03 | 55.41212 | 13.93705 | 12596 ft | 410 kts | 272° |
| 2026-04-21 20:03 | 55.41212 | 13.88705 | 11973 ft | 406 kts | 271° |
| 2026-04-21 20:04 | 55.41204 | 13.83849 | 11569 ft | 383 kts | 271° |
| 2026-04-21 20:04 | 55.41190 | 13.79402 | 11412 ft | 354 kts | 271° |
| 2026-04-21 20:04 | 55.41175 | 13.75227 | 11283 ft | 328 kts | 272° |
| 2026-04-21 20:04 | 55.41161 | 13.71329 | 10975 ft | 312 kts | 272° |
| 2026-04-21 20:05 | 55.41151 | 13.67563 | 10711 ft | 306 kts | 272° |
| 2026-04-21 20:05 | 55.41144 | 13.63832 | 10460 ft | 304 kts | 272° |
| 2026-04-21 20:05 | 55.41137 | 13.60121 | 10249 ft | 302 kts | 272° |
| 2026-04-21 20:05 | 55.41201 | 13.56452 | 10123 ft | 300 kts | 279° |
| 2026-04-21 20:06 | 55.41444 | 13.54065 | 10041 ft | 297 kts | 287° |
| 2026-04-21 20:06 | 55.42040 | 13.50597 | 9917 ft | 296 kts | 290° |
| 2026-04-21 20:06 | 55.42648 | 13.47134 | 9798 ft | 295 kts | 290° |
| 2026-04-21 20:06 | 55.43244 | 13.43680 | 9665 ft | 294 kts | 290° |
| 2026-04-21 20:07 | 55.43864 | 13.40260 | 9433 ft | 290 kts | 296° |
| 2026-04-21 20:07 | 55.44868 | 13.37215 | 9311 ft | 287 kts | 306° |
| 2026-04-21 20:07 | 55.45955 | 13.34273 | 9188 ft | 286 kts | 306° |
| 2026-04-21 20:07 | 55.47043 | 13.31334 | 9061 ft | 286 kts | 307° |
| 2026-04-21 20:08 | 55.48127 | 13.28410 | 8936 ft | 285 kts | 306° |
| 2026-04-21 20:08 | 55.49210 | 13.25484 | 8807 ft | 284 kts | 307° |
| 2026-04-21 20:08 | 55.50286 | 13.22567 | 8691 ft | 284 kts | 306° |
| 2026-04-21 20:08 | 55.51364 | 13.19634 | 8458 ft | 285 kts | 306° |
| 2026-04-21 20:09 | 55.52435 | 13.16717 | 8113 ft | 282 kts | 306° |
| 2026-04-21 20:09 | 55.53498 | 13.13823 | 7760 ft | 280 kts | 306° |
| 2026-04-21 20:09 | 55.54562 | 13.10934 | 7258 ft | 280 kts | 306° |
| 2026-04-21 20:09 | 55.55609 | 13.08084 | 6759 ft | 275 kts | 306° |
| 2026-04-21 20:10 | 55.56642 | 13.05265 | 6258 ft | 272 kts | 306° |
| 2026-04-21 20:10 | 55.57663 | 13.02472 | 5757 ft | 269 kts | 306° |
| 2026-04-21 20:10 | 55.58676 | 12.99699 | 5414 ft | 265 kts | 306° |
| 2026-04-21 20:10 | 55.59665 | 12.96990 | 5292 ft | 266 kts | 306° |
| 2026-04-21 20:11 | 55.60823 | 12.94496 | 5163 ft | 261 kts | 324° |
| 2026-04-21 20:11 | 55.62390 | 12.93011 | 5031 ft | 255 kts | 346° |
| 2026-04-21 20:11 | 55.64126 | 12.92726 | 4841 ft | 250 kts | 8° |
| 2026-04-21 20:11 | 55.65772 | 12.93627 | 4689 ft | 244 kts | 29° |
| 2026-04-21 20:12 | 55.67064 | 12.95368 | 4519 ft | 226 kts | 40° |
| 2026-04-21 20:12 | 55.68227 | 12.97180 | 4313 ft | 220 kts | 40° |
| 2026-04-21 20:12 | 55.69369 | 12.98970 | 4044 ft | 219 kts | 40° |
| 2026-04-21 20:12 | 55.70505 | 13.00775 | 3774 ft | 219 kts | 40° |
| 2026-04-21 20:13 | 55.71629 | 13.02584 | 3500 ft | 218 kts | 40° |
| 2026-04-21 20:13 | 55.72873 | 13.04031 | 3211 ft | 213 kts | 15° |
| 2026-04-21 20:13 | 55.74302 | 13.03989 | 3084 ft | 204 kts | 340° |
| 2026-04-21 20:13 | 55.75516 | 13.02768 | 2993 ft | 199 kts | 327° |
| 2026-04-21 20:14 | 55.76633 | 13.01351 | 2995 ft | 196 kts | 326° |
| 2026-04-21 20:14 | 55.77732 | 12.99915 | 2995 ft | 196 kts | 325° |
| 2026-04-21 20:14 | 55.78809 | 12.98441 | 2995 ft | 196 kts | 316° |
| 2026-04-21 20:14 | 55.79424 | 12.96285 | 2996 ft | 203 kts | 282° |
| 2026-04-21 20:15 | 55.79312 | 12.93772 | 2998 ft | 210 kts | 253° |
| 2026-04-21 20:15 | 55.78493 | 12.91616 | 2995 ft | 215 kts | 225° |
| 2026-04-21 20:15 | 55.77365 | 12.89851 | 2995 ft | 216 kts | 224° |
| 2026-04-21 20:15 | 55.76237 | 12.88098 | 2996 ft | 216 kts | 224° |
| 2026-04-21 20:16 | 55.75108 | 12.86336 | 2997 ft | 216 kts | 224° |
| 2026-04-21 20:16 | 55.73975 | 12.84566 | 2913 ft | 217 kts | 224° |
| 2026-04-21 20:16 | 55.72848 | 12.82804 | 2680 ft | 216 kts | 224° |
| 2026-04-21 20:16 | 55.71717 | 12.81037 | 2403 ft | 217 kts | 224° |
| 2026-04-21 20:17 | 55.70592 | 12.79280 | 2109 ft | 213 kts | 224° |
| 2026-04-21 20:17 | 55.69515 | 12.77605 | 1843 ft | 199 kts | 223° |
| 2026-04-21 20:17 | 55.68529 | 12.76072 | 1614 ft | 179 kts | 223° |
| 2026-04-21 20:17 | 55.67652 | 12.74708 | 1378 ft | 159 kts | 223° |
| 2026-04-21 20:18 | 55.66862 | 12.73477 | 1159 ft | 145 kts | 223° |
| 2026-04-21 20:18 | 55.66118 | 12.72319 | 975 ft | 140 kts | 223° |
| 2026-04-21 20:18 | 55.65393 | 12.71194 | 775 ft | 137 kts | 223° |
| 2026-04-21 20:18 | 55.64678 | 12.70081 | 605 ft | 137 kts | 223° |
| 2026-04-21 20:19 | 55.63964 | 12.68974 | 426 ft | 136 kts | 223° |
| 2026-04-21 20:19 | 55.63255 | 12.67874 | 257 ft | 136 kts | 223° |
| 2026-04-21 20:19 | 55.62544 | 12.66772 | 83 ft | 135 kts | 222° |
| 2026-04-21 20:19 | 55.61882 | 12.65732 | 23 ft | 99 kts | 220° |
| 2026-04-21 20:20 | 55.61540 | 12.65213 | 18 ft | 43 kts | 220° |
| 2026-04-21 20:20 | 55.61365 | 12.64918 | 22 ft | 31 kts | 223° |
| 2026-04-21 20:20 | 55.61261 | 12.64656 | 24 ft | 20 kts | 247° |
| 2026-04-21 20:20 | 55.61228 | 12.64485 | 19 ft | 9 kts | 252° |
| 2026-04-21 20:21 | 55.61211 | 12.64388 | 20 ft | 8 kts | 252° |
| 2026-04-21 20:21 | 55.61194 | 12.64296 | 18 ft | 9 kts | 252° |
| 2026-04-21 20:21 | 55.61190 | 12.64181 | 15 ft | 10 kts | 283° |
| 2026-04-21 20:21 | 55.61279 | 12.64119 | 16 ft | 24 kts | 20° |
| 2026-04-21 20:22 | 55.61425 | 12.64280 | 17 ft | 24 kts | 33° |
| 2026-04-21 20:22 | 55.61691 | 12.64560 | 19 ft | 20 kts | 8° |
| 2026-04-21 20:22 | 55.61827 | 12.64532 | 24 ft | 20 kts | 349° |
| 2026-04-21 20:23 | 55.61960 | 12.64485 | 21 ft | 20 kts | 348° |
| 2026-04-21 20:23 | 55.62067 | 12.64450 | 20 ft | 12 kts | 350° |
| 2026-04-21 20:23 | 55.62148 | 12.64422 | 17 ft | 11 kts | 350° |
| 2026-04-21 20:23 | 55.62200 | 12.64406 | 17 ft | 7 kts | 350° |
| 2026-04-21 20:24 | 55.62247 | 12.64361 | 20 ft | 15 kts | 316° |
| 2026-04-21 20:24 | 55.62336 | 12.64128 | 17 ft | 19 kts | 301° |
| 2026-04-21 20:24 | 55.62423 | 12.63897 | 20 ft | 25 kts | 306° |
| 2026-04-21 20:24 | 55.62547 | 12.63768 | 23 ft | 24 kts | 356° |
| 2026-04-21 20:25 | 55.62696 | 12.63867 | 25 ft | 21 kts | 32° |
| 2026-04-21 20:25 | 55.62816 | 12.63934 | 24 ft | 19 kts | 327° |
| 2026-04-21 20:25 | 55.62848 | 12.63807 | 26 ft | 2 kts | 283° |
| 2026-04-21 20:25 | 55.62869 | 12.63822 | 25 ft | 8 kts | 64° |
| 2026-04-21 20:26 | 55.62884 | 12.63864 | 23 ft | 7 kts | 30° |
| 2026-04-21 20:26 | 55.62898 | 12.63871 | 23 ft | 0 kts | 12° |